KHUL

Houlton International Airport

Houlton, Maine, USA
METAR KHUL 190253Z AUTO 00000KT 8SM CLR M12/M13 A2983 RMK AO2 SLP111 T11221133 53012
Observed Flight Rules
Jan-19 @ 02:53 UTC (58 minutes ago) Visual Flight Rules
Wind Visibility Clouds
Calm 8 miles
  • Clear skies
Temperatures Readings
Current -12°C / 10°F
Dewpoint -13°C / 9°F
Humidity 92%
Altimeter 29.83" Hg
Pressure 1011.1 hPa
Elevation 150
METAR KHUL 190253Z AUTO 00000KT 8SM CLR M12/M13 A2983 RMK AO2 SLP111 T11221133 53012
Observed Flight Rules
Jan-19 @ 02:53 UTC
(58 minutes ago)
VFR
Wind Visibility
Calm 8 miles
Clouds
  • Clear skies
Temperature Dewpoint
-12°C / 10°F -13°C / 9°F
Humidity Altimeter Pressure
92% 29.83" Hg 1011.1 hPa